Impacts METAR Board
IDs:

KJFK - New York/Kennedy Int, NY, US

Updated at: 1400 UTC 13 Dec 2018
Potential Impact None Slight Moderate High
Time 13/02Z 13/03Z 13/04Z 13/05Z 13/06Z 13/07Z 13/08Z 13/09Z 13/10Z 13/11Z 13/12Z 13/13Z 13/14Z
Temp34 34 32 34 34 33 33 32 32 32 33 34 34
Dewpt24 24 25 26 25 24 22 19 19 21 22 24 25
Altim30.26 30.27 30.27 30.29 30.31 30.33 30.34 30.34 30.35 30.36 30.38 30.40 30.41
VIS10 10 10 10 10 10 10 10 10 10 10 10 9
CIG250 250 230 190 160 190 110 150 160 42 41 41 37
CoverBKNBKNOVCOVCOVCOVCOVCOVCOVCOVCOVCOVCOVC
FltCatVFRVFRVFRVFRVFRVFRVFRVFRVFRVFRVFRVFRVFR
WX-----------------------RA -GS-SN
WDir30307070807070606070606060
WSpd4 4 7 6 7 9 12 10 9 12 10 11 10
WGst-- -- -- -- -- -- -- -- -- -- -- -- --
Raw hourly METARs
KJFK 130151Z 03004KT 10SM FEW043 BKN250 01/M04 A3026 RMK AO2 SLP246 T00111044
KJFK 130251Z 03004KT 10SM BKN250 01/M04 A3027 RMK AO2 SLP250 T00111044 53010
KJFK 130351Z 07007KT 10SM FEW140 OVC230 00/M04 A3027 RMK AO2 SLP249 T00001039
KJFK 130451Z 07006KT 10SM OVC190 01/M03 A3029 RMK AO2 SLP257 T00111033 400561011
KJFK 130551Z 08007KT 10SM OVC160 01/M04 A3031 RMK AO2 SLP265 T00111039 10033 21011 53015
KJFK 130651Z 07009KT 10SM SCT090 OVC190 01/M04 A3033 RMK AO2 SLP269 T00061044
KJFK 130751Z 07012KT 10SM BKN110 OVC190 01/M06 A3034 RMK AO2 SLP272 T00061056
KJFK 130851Z 06010KT 10SM FEW095 OVC150 00/M07 A3034 RMK AO2 SLP273 T00001072 51008
KJFK 130951Z 06009KT 10SM SCT095 OVC160 00/M07 A3035 RMK AO2 SLP276 T00001072
KJFK 131051Z 07012KT 10SM BKN042 OVC150 00/M06 A3036 RMK AO2 SLP280 T00001061
KJFK 131151Z 06010KT 10SM BKN041 OVC150 01/M06 A3038 RMK AO2 SLP288 T00061056 10011 20000 53015
KJFK 131251Z 06011KT 10SM -RAGS BKN041 OVC080 01/M04 A3040 RMK AO2 RAB50GSB50 SLP293 GS LGT P0000 T00111044
KJFK 131351Z 06010KT 9SM -SN OVC037 01/M04 A3041 RMK AO2 RAE05GSE05SNB42 SLP298 P0000 T00111039



Page loaded:  14:31 UTC  |   06:31 AM Pacific  |   07:31 AM Mountain  |   08:31 AM Central  |   09:31 AM Eastern

 

ADVISORIES

FORECASTS

FORECASTS

OBSERVATIONS

USER TOOLS

ABOUT US